createdAt,value
2023-05-11T00:00:03.500Z,21.85
2023-05-11T00:02:32.408Z,22.10
2023-05-11T00:04:59.515Z,23.50
2023-05-11T00:07:26.824Z,22.20
2023-05-11T00:09:53.901Z,23.63
2023-05-11T00:12:20.894Z,21.83
2023-05-11T00:14:47.939Z,23.63
2023-05-11T00:17:14.821Z,22.17
2023-05-11T00:19:41.766Z,22.38
2023-05-11T00:22:08.805Z,22.58
2023-05-11T00:24:35.705Z,23.08
2023-05-11T00:27:02.783Z,23.38
2023-05-11T00:29:30.143Z,23.05
2023-05-11T00:31:57.242Z,23.35
2023-05-11T00:34:24.293Z,22.48
2023-05-11T00:36:53.708Z,22.35
2023-05-11T00:39:20.780Z,21.98
2023-05-11T00:41:48.331Z,22.90
2023-05-11T00:44:15.304Z,21.50
2023-05-11T00:46:43.770Z,22.05
2023-05-11T00:49:11.875Z,22.48
2023-05-11T00:51:39.474Z,23.42
2023-05-11T00:54:09.338Z,21.88
2023-05-11T00:56:36.375Z,22.90
2023-05-11T00:59:03.934Z,22.42
2023-05-11T01:01:31.317Z,22.27
2023-05-11T01:03:58.596Z,24.48
2023-05-11T01:06:46.791Z,22.77
2023-05-11T01:09:53.372Z,21.95
2023-05-11T01:12:46.312Z,21.52
2023-05-11T01:15:22.409Z,21.77
2023-05-11T01:18:07.364Z,22.13
2023-05-11T01:20:34.889Z,19.70
2023-05-11T01:23:08.124Z,22.63
2023-05-11T01:26:08.802Z,20.92
2023-05-11T01:29:13.646Z,20.77
2023-05-11T01:31:47.717Z,19.85
2023-05-11T01:34:20.982Z,19.02
2023-05-11T01:37:16.642Z,16.38
2023-05-11T01:39:51.610Z,16.25
2023-05-11T01:42:22.174Z,16.33
2023-05-11T01:44:53.421Z,16.55
2023-05-11T01:47:23.702Z,17.92
2023-05-11T01:49:53.336Z,17.55
2023-05-11T01:52:23.692Z,17.35
2023-05-11T01:54:53.010Z,18.17
2023-05-11T01:57:21.447Z,17.85
2023-05-11T01:59:50.382Z,18.23
2023-05-11T02:02:21.806Z,17.15
2023-05-11T02:04:50.473Z,18.27
2023-05-11T02:07:19.167Z,17.30
2023-05-11T02:09:47.464Z,17.67
2023-05-11T02:12:18.528Z,17.58
2023-05-11T02:14:47.586Z,19.15
2023-05-11T02:17:21.219Z,17.35
2023-05-11T02:19:49.796Z,18.07
2023-05-11T02:22:17.921Z,16.00
2023-05-11T02:24:45.532Z,16.38
2023-05-11T02:27:13.059Z,17.40
2023-05-11T02:29:40.134Z,17.60
2023-05-11T02:32:09.802Z,18.08
2023-05-11T02:34:48.033Z,16.63
2023-05-11T02:37:21.843Z,16.67
2023-05-11T02:39:58.125Z,18.08
2023-05-11T02:42:58.451Z,17.08
2023-05-11T02:45:54.135Z,17.45
2023-05-11T02:48:27.948Z,17.15
2023-05-11T02:51:01.160Z,18.65
2023-05-11T02:53:35.176Z,17.48
2023-05-11T02:56:03.991Z,18.58
2023-05-11T02:58:36.383Z,18.35
2023-05-11T03:01:20.535Z,18.05
2023-05-11T03:03:48.049Z,16.92
2023-05-11T03:06:16.629Z,16.92
2023-05-11T03:08:44.315Z,14.32
2023-05-11T03:11:16.550Z,13.93
2023-05-11T03:13:47.472Z,12.98
2023-05-11T03:16:19.598Z,12.55
2023-05-11T03:18:50.171Z,12.85
2023-05-11T03:21:21.609Z,13.10
2023-05-11T03:23:49.678Z,13.07
2023-05-11T03:26:21.564Z,12.52
2023-05-11T03:28:52.526Z,13.38
2023-05-11T03:31:20.322Z,13.93
2023-05-11T03:33:48.495Z,13.85
2023-05-11T03:36:17.294Z,14.10
2023-05-11T03:38:47.615Z,13.63
2023-05-11T03:41:19.096Z,13.18
2023-05-11T03:43:53.742Z,14.93
2023-05-11T03:46:24.791Z,14.55
2023-05-11T03:48:53.095Z,14.27
2023-05-11T03:53:51.381Z,14.80
2023-05-11T03:56:19.322Z,14.65
2023-05-11T03:58:46.533Z,15.73
2023-05-11T04:01:13.959Z,15.60
2023-05-11T04:03:51.592Z,14.70
2023-05-11T04:06:19.855Z,15.82
2023-05-11T04:08:52.254Z,15.52
2023-05-11T04:11:19.281Z,15.27
2023-05-11T04:13:46.343Z,15.52
2023-05-11T04:16:13.292Z,14.77
2023-05-11T04:18:40.262Z,14.52
2023-05-11T04:21:07.283Z,16.00
2023-05-11T04:23:34.526Z,15.00
2023-05-11T04:26:05.261Z,15.98
2023-05-11T04:28:32.650Z,15.68
2023-05-11T04:31:00.374Z,13.63
2023-05-11T04:33:30.394Z,15.05
2023-05-11T04:35:58.900Z,15.48
2023-05-11T04:38:25.896Z,14.40
2023-05-11T04:40:53.790Z,14.57
2023-05-11T04:43:21.100Z,15.65
2023-05-11T04:45:49.456Z,14.45
2023-05-11T04:50:48.343Z,14.45
2023-05-11T04:53:17.204Z,14.40
2023-05-11T04:55:44.798Z,14.55
2023-05-11T04:58:12.225Z,15.10
2023-05-11T05:00:39.115Z,14.70
2023-05-11T05:03:06.173Z,16.00
2023-05-11T05:05:33.212Z,16.48
2023-05-11T05:08:00.312Z,15.93
2023-05-11T05:10:27.284Z,17.67
2023-05-11T05:12:54.574Z,18.90
2023-05-11T05:15:21.599Z,19.80
2023-05-11T05:17:52.814Z,19.27
2023-05-11T05:20:21.076Z,24.37
2023-05-11T05:22:48.837Z,24.30
2023-05-11T05:29:06.184Z,28.92
2023-05-11T05:31:34.718Z,28.75
2023-05-11T05:34:03.349Z,32.80
2023-05-11T05:36:31.769Z,30.50
2023-05-11T05:38:58.689Z,32.47
2023-05-11T05:41:52.446Z,31.15
2023-05-11T05:44:20.524Z,30.38
2023-05-11T05:47:59.054Z,32.95
2023-05-11T05:50:27.899Z,31.65
2023-05-11T05:52:57.933Z,31.33
2023-05-11T05:57:58.290Z,27.88
2023-05-11T06:00:25.558Z,28.67
2023-05-11T06:03:01.522Z,28.42
2023-05-11T06:05:32.149Z,28.33
2023-05-11T06:08:10.066Z,25.88
2023-05-11T06:10:38.951Z,25.33
2023-05-11T06:13:17.564Z,26.45
2023-05-11T06:15:45.173Z,25.45
2023-05-11T06:18:20.545Z,24.08
2023-05-11T06:23:56.009Z,25.15
2023-05-11T06:26:25.710Z,25.00
2023-05-11T06:28:53.577Z,24.80
2023-05-11T06:31:26.058Z,27.63
2023-05-11T06:33:54.087Z,26.98
2023-05-11T06:46:32.769Z,21.98
2023-05-11T06:49:48.023Z,22.40
2023-05-11T07:17:49.956Z,24.25
2023-05-11T07:20:18.990Z,21.58
2023-05-11T07:22:46.425Z,19.85
2023-05-11T07:25:13.452Z,17.48
2023-05-11T07:27:40.511Z,13.20
2023-05-11T07:30:08.854Z,11.85
2023-05-11T07:32:36.211Z,10.65
2023-05-11T07:35:03.577Z,11.30
2023-05-11T07:37:30.589Z,12.77
2023-05-11T07:39:58.899Z,10.13
2023-05-11T07:42:26.639Z,10.55
2023-05-11T07:44:54.009Z,10.65
2023-05-11T07:47:21.639Z,12.00
2023-05-11T07:49:48.868Z,11.30
2023-05-11T07:52:15.844Z,11.10
2023-05-11T07:54:45.107Z,10.52
2023-05-11T07:57:13.918Z,12.23
2023-05-11T07:59:46.470Z,11.93
2023-05-11T08:02:16.646Z,11.35
2023-05-11T08:04:43.993Z,7.93
2023-05-11T08:07:10.965Z,7.28
2023-05-11T08:09:39.697Z,6.57
2023-05-11T08:12:09.323Z,6.35
2023-05-11T08:14:40.191Z,5.32
2023-05-11T08:17:07.288Z,6.22
2023-05-11T08:19:34.384Z,5.68
2023-05-11T08:22:02.284Z,6.88
2023-05-11T08:24:29.543Z,6.15
2023-05-11T08:26:56.837Z,5.30
2023-05-11T08:29:27.430Z,4.43
2023-05-11T08:31:54.614Z,4.22
2023-05-11T08:34:22.605Z,3.92
2023-05-11T08:36:51.211Z,3.90
2023-05-11T08:39:32.933Z,4.13
2023-05-11T08:42:07.698Z,4.47
2023-05-11T08:44:37.736Z,3.75
2023-05-11T08:47:21.770Z,3.40
2023-05-11T08:49:51.894Z,3.50
2023-05-11T08:52:19.486Z,3.95
2023-05-11T08:54:47.421Z,4.13
2023-05-11T08:57:15.275Z,3.63
2023-05-11T08:59:46.322Z,3.45
2023-05-11T09:02:19.152Z,3.20
2023-05-11T09:04:48.865Z,2.92
2023-05-11T09:07:18.332Z,3.47
2023-05-11T09:09:47.302Z,3.50
2023-05-11T09:12:14.574Z,3.33
2023-05-11T09:14:42.229Z,3.45
2023-05-11T09:17:09.342Z,3.35
2023-05-11T09:19:36.556Z,3.88
2023-05-11T09:22:06.422Z,4.07
2023-05-11T09:24:33.510Z,3.80
2023-05-11T09:27:10.917Z,3.70
2023-05-11T09:29:39.516Z,4.40
2023-05-11T09:32:06.826Z,4.30
2023-05-11T09:34:33.986Z,3.67
2023-05-11T09:37:00.941Z,3.90
2023-05-11T09:39:42.175Z,4.00
2023-05-11T09:42:30.111Z,3.83
2023-05-11T09:45:01.828Z,3.92
2023-05-11T09:47:40.804Z,3.53
2023-05-11T09:50:18.821Z,4.35
2023-05-11T09:52:54.239Z,4.43
2023-05-11T09:55:21.157Z,4.22
2023-05-11T09:57:55.317Z,4.18
2023-05-11T10:00:22.306Z,4.78
2023-05-11T10:03:08.020Z,3.40
2023-05-11T10:05:36.605Z,3.65
2023-05-11T10:08:05.504Z,3.83
2023-05-11T10:10:34.482Z,3.72
2023-05-11T10:13:03.610Z,4.50
2023-05-11T10:15:35.381Z,4.80
2023-05-11T10:18:03.728Z,5.57
2023-05-11T10:20:31.573Z,4.78
2023-05-11T10:22:58.883Z,4.05
2023-05-11T10:25:28.880Z,4.22
2023-05-11T10:27:57.637Z,3.42
2023-05-11T10:30:24.896Z,3.67
2023-05-11T10:32:53.421Z,3.40
2023-05-11T10:35:22.114Z,3.30
2023-05-11T10:37:50.136Z,4.00
2023-05-11T10:40:17.544Z,3.72
2023-05-11T10:43:29.889Z,3.40
2023-05-11T10:46:35.381Z,2.83
2023-05-11T10:49:31.812Z,3.45
2023-05-11T10:52:43.980Z,3.03
2023-05-11T10:55:28.883Z,2.63
2023-05-11T10:58:14.542Z,2.97
2023-05-11T11:01:19.367Z,2.97
2023-05-11T11:04:05.633Z,2.38
2023-05-11T11:06:34.909Z,2.60
2023-05-11T11:09:23.758Z,3.05
2023-05-11T11:11:51.268Z,3.42
2023-05-11T11:14:19.415Z,3.03
2023-05-11T11:17:14.491Z,2.92
2023-05-11T11:19:43.496Z,3.40
2023-05-11T11:22:48.948Z,2.83
2023-05-11T11:25:38.855Z,4.93
2023-05-11T11:28:06.022Z,5.45
2023-05-11T11:30:33.570Z,4.82
2023-05-11T11:33:09.795Z,4.28
2023-05-11T11:35:42.833Z,4.60
2023-05-11T11:38:20.882Z,5.28
2023-05-11T11:40:53.116Z,5.43
2023-05-11T11:43:27.267Z,5.67
2023-05-11T11:45:59.976Z,5.28
2023-05-11T11:48:35.703Z,4.68
2023-05-11T11:51:14.019Z,4.82
2023-05-11T11:53:41.180Z,5.53
2023-05-11T11:56:13.937Z,5.35
2023-05-11T11:58:44.515Z,4.85
2023-05-11T12:01:22.901Z,5.38
2023-05-11T12:03:59.568Z,4.93
2023-05-11T12:06:34.914Z,4.38
2023-05-11T12:09:02.042Z,4.60
2023-05-11T12:11:30.368Z,5.25
2023-05-11T12:13:59.127Z,4.38
2023-05-11T12:16:27.088Z,3.55
2023-05-11T12:18:58.513Z,3.90
2023-05-11T12:21:30.374Z,5.03
2023-05-11T12:23:58.163Z,4.38
2023-05-11T12:26:29.600Z,4.47
2023-05-11T12:29:13.956Z,3.83
2023-05-11T12:31:43.867Z,4.13
2023-05-11T12:34:18.269Z,4.53
2023-05-11T12:36:47.576Z,4.13
2023-05-11T12:39:27.891Z,3.55
2023-05-11T12:41:56.312Z,3.83
2023-05-11T12:44:26.906Z,3.55
2023-05-11T12:46:54.764Z,3.42
2023-05-11T12:49:27.857Z,4.30
2023-05-11T12:51:58.001Z,3.75
2023-05-11T12:54:39.123Z,3.67
2023-05-11T12:57:08.538Z,3.03
2023-05-11T12:59:40.114Z,3.90
2023-05-11T13:02:08.718Z,3.70
2023-05-11T13:04:37.043Z,2.97
2023-05-11T13:07:04.360Z,3.50
2023-05-11T13:09:31.505Z,3.50
2023-05-11T13:12:32.022Z,4.13
2023-05-11T13:15:05.884Z,3.20
2023-05-11T13:17:38.288Z,2.55
2023-05-11T13:20:27.637Z,3.05
2023-05-11T13:23:12.047Z,2.78
2023-05-11T13:25:54.219Z,2.80
2023-05-11T13:28:24.468Z,2.92
2023-05-11T13:30:59.261Z,2.67
2023-05-11T13:33:26.589Z,3.25
2023-05-11T13:35:54.287Z,2.38
2023-05-11T13:38:21.210Z,2.47
2023-05-11T13:40:48.198Z,3.00
2023-05-11T13:43:15.140Z,2.85
2023-05-11T13:45:42.148Z,3.03
2023-05-11T13:48:11.850Z,2.38
2023-05-11T13:50:39.979Z,2.42
2023-05-11T13:53:06.872Z,3.58
2023-05-11T13:55:35.554Z,2.40
2023-05-11T13:58:02.713Z,2.70
2023-05-11T14:00:31.466Z,3.08
2023-05-11T14:02:58.740Z,2.88
2023-05-11T14:05:26.631Z,3.00
2023-05-11T14:07:53.614Z,3.78
2023-05-11T14:10:21.741Z,3.08
2023-05-11T14:12:48.689Z,2.90
2023-05-11T14:15:17.704Z,4.15
2023-05-11T14:17:45.168Z,4.28
2023-05-11T14:20:13.109Z,3.42
2023-05-11T14:22:42.738Z,3.53
2023-05-11T14:25:09.824Z,3.35
2023-05-11T14:27:37.049Z,4.10
2023-05-11T14:30:04.285Z,3.38
2023-05-11T14:32:32.931Z,3.47
2023-05-11T14:35:04.162Z,2.75
2023-05-11T14:37:32.198Z,3.17
2023-05-11T14:39:59.896Z,3.38
2023-05-11T14:42:27.074Z,4.40
2023-05-11T14:44:54.293Z,3.47
2023-05-11T14:47:21.573Z,3.47
2023-05-11T14:49:48.622Z,3.05
2023-05-11T14:52:16.759Z,3.35
2023-05-11T14:54:45.339Z,2.72
2023-05-11T14:57:12.744Z,3.25
2023-05-11T14:59:55.179Z,2.85
2023-05-11T15:02:26.115Z,3.55
2023-05-11T15:04:53.417Z,3.08
2023-05-11T15:07:20.651Z,3.53
2023-05-11T15:09:47.800Z,3.55
2023-05-11T15:12:14.753Z,3.40
2023-05-11T15:14:42.465Z,2.20
2023-05-11T15:17:10.210Z,2.65
2023-05-11T15:19:37.471Z,2.97
2023-05-11T15:22:08.053Z,2.70
2023-05-11T15:24:37.153Z,2.90
2023-05-11T15:27:05.151Z,2.60
2023-05-11T15:29:32.789Z,2.55
2023-05-11T15:32:03.092Z,2.80
2023-05-11T15:34:30.804Z,2.22
2023-05-11T15:36:58.856Z,2.97
2023-05-11T15:39:27.962Z,3.45
2023-05-11T15:41:55.109Z,2.60
2023-05-11T15:44:22.624Z,2.80
2023-05-11T15:46:50.765Z,2.97
2023-05-11T15:49:18.485Z,3.53
2023-05-11T15:51:45.985Z,3.13
2023-05-11T15:54:13.472Z,3.42
2023-05-11T15:56:40.539Z,3.33
2023-05-11T15:59:08.280Z,3.95
2023-05-11T16:01:35.905Z,3.33
2023-05-11T16:04:04.281Z,3.28
2023-05-11T16:06:35.089Z,3.30
2023-05-11T16:09:02.214Z,3.72
2023-05-11T16:11:30.065Z,3.78
2023-05-11T16:13:57.470Z,2.60
2023-05-11T16:16:24.901Z,3.35
2023-05-11T16:18:52.212Z,3.65
2023-05-11T16:21:19.551Z,3.70
2023-05-11T16:23:47.052Z,3.72
2023-05-11T16:26:14.632Z,3.60
2023-05-11T16:28:42.444Z,4.07
2023-05-11T16:31:13.610Z,4.25
2023-05-11T16:33:41.104Z,3.20
2023-05-11T16:36:09.987Z,3.85
2023-05-11T16:38:37.709Z,3.70
2023-05-11T16:41:05.517Z,3.95
2023-05-11T16:43:35.202Z,4.15
2023-05-11T16:46:03.542Z,3.90
2023-05-11T16:48:30.954Z,6.53
2023-05-11T16:50:57.953Z,6.50
2023-05-11T16:53:28.445Z,6.90
2023-05-11T16:55:57.720Z,8.30
2023-05-11T16:58:25.072Z,8.07
2023-05-11T17:00:52.893Z,9.45
2023-05-11T17:03:21.546Z,9.98
2023-05-11T17:05:48.854Z,9.88
2023-05-11T17:08:16.276Z,9.48
2023-05-11T17:10:43.360Z,9.10
2023-05-11T17:15:57.388Z,10.02
2023-05-11T17:18:26.017Z,9.07
2023-05-11T17:20:56.455Z,9.73
2023-05-11T17:23:25.625Z,9.13
2023-05-11T17:25:52.819Z,9.43
2023-05-11T17:28:19.999Z,8.70
2023-05-11T17:30:51.350Z,9.43
2023-05-11T17:33:18.812Z,9.97
2023-05-11T17:35:47.210Z,9.73
2023-05-11T17:38:14.248Z,9.18
2023-05-11T17:40:45.750Z,9.00
2023-05-11T17:43:13.624Z,8.88
2023-05-11T17:45:42.669Z,8.95
2023-05-11T17:48:09.743Z,9.10
2023-05-11T17:50:37.209Z,8.60
2023-05-11T17:53:05.499Z,7.90
2023-05-11T17:55:32.438Z,7.75
2023-05-11T17:57:59.697Z,7.07
2023-05-11T18:00:27.964Z,7.47
2023-05-11T18:02:55.139Z,6.35
2023-05-11T18:05:28.079Z,7.43
2023-05-11T18:08:02.887Z,8.07
2023-05-11T18:10:30.220Z,6.78
2023-05-11T18:12:57.235Z,6.38
2023-05-11T18:15:25.602Z,7.68
2023-05-11T18:17:54.539Z,7.80
2023-05-11T18:20:21.738Z,8.35
2023-05-11T18:22:48.740Z,9.43
2023-05-11T18:25:15.733Z,8.75
2023-05-11T18:27:43.798Z,9.90
2023-05-11T18:30:11.428Z,10.70
2023-05-11T18:32:38.402Z,10.45
2023-05-11T18:35:05.636Z,11.20
2023-05-11T18:37:35.550Z,12.00
2023-05-11T18:40:07.168Z,11.38
2023-05-11T18:42:34.269Z,12.48
2023-05-11T18:45:01.388Z,12.52
2023-05-11T18:47:29.745Z,12.30
2023-05-11T18:49:58.573Z,13.05
2023-05-11T18:52:28.865Z,13.30
2023-05-11T18:54:56.744Z,12.05
2023-05-11T18:57:23.983Z,13.30
2023-05-11T18:59:51.849Z,13.82
2023-05-11T19:02:18.907Z,13.23
2023-05-11T19:04:45.980Z,13.55
2023-05-11T19:07:12.934Z,13.68
2023-05-11T19:09:39.907Z,14.30
2023-05-11T19:12:07.418Z,13.38
2023-05-11T19:14:37.764Z,14.02
2023-05-11T19:17:05.473Z,15.38
2023-05-11T19:19:32.536Z,15.75
2023-05-11T19:22:00.066Z,17.30
2023-05-11T19:24:27.132Z,16.45
2023-05-11T19:27:05.715Z,17.05
2023-05-11T19:29:33.832Z,17.73
2023-05-11T19:32:00.832Z,17.08
2023-05-11T19:34:27.853Z,18.75
2023-05-11T19:36:54.800Z,17.13
2023-05-11T19:39:25.593Z,17.23
2023-05-11T19:41:53.679Z,16.90
2023-05-11T19:44:21.607Z,18.10
2023-05-11T19:46:48.813Z,18.88
2023-05-11T19:49:18.074Z,19.25
2023-05-11T19:51:45.047Z,17.98
2023-05-11T19:54:13.946Z,18.38
2023-05-11T19:56:41.680Z,18.58
2023-05-11T19:59:10.343Z,17.83
2023-05-11T20:01:37.275Z,18.42
2023-05-11T20:04:04.861Z,18.08
2023-05-11T20:06:31.965Z,19.80
2023-05-11T20:08:59.148Z,19.17
2023-05-11T20:11:26.238Z,19.90
2023-05-11T20:13:53.968Z,19.42
2023-05-11T20:16:24.292Z,19.65
2023-05-11T20:18:51.750Z,17.83
2023-05-11T20:21:18.680Z,17.73
2023-05-11T20:23:47.170Z,16.92
2023-05-11T20:26:14.352Z,16.67
2023-05-11T20:28:41.356Z,18.38
2023-05-11T20:31:09.648Z,17.15
2023-05-11T20:36:06.771Z,17.95
2023-05-11T20:38:34.097Z,16.65
2023-05-11T20:41:01.036Z,18.60
2023-05-11T20:43:28.034Z,17.15
2023-05-11T20:45:55.490Z,18.00
2023-05-11T20:48:35.928Z,16.33
2023-05-11T20:51:07.758Z,17.20
2023-05-11T20:53:34.744Z,15.55
2023-05-11T20:56:03.081Z,17.85
2023-05-11T20:58:31.591Z,18.27
2023-05-11T21:00:58.791Z,16.98
2023-05-11T21:03:27.725Z,18.20
2023-05-11T21:05:54.789Z,17.98
2023-05-11T21:08:21.771Z,16.90
2023-05-11T21:10:48.810Z,16.90
2023-05-11T21:13:15.874Z,16.40
2023-05-11T21:15:42.840Z,17.70
2023-05-11T21:18:10.005Z,18.23
2023-05-11T21:20:37.051Z,18.27
2023-05-11T21:23:06.902Z,20.58
2023-05-11T21:25:34.120Z,18.33
2023-05-11T21:28:01.258Z,18.90
2023-05-11T21:30:28.383Z,21.20
2023-05-11T21:32:55.388Z,19.17
2023-05-11T21:35:24.426Z,20.42
2023-05-11T21:37:51.392Z,19.48
2023-05-11T21:40:18.757Z,19.35
2023-05-11T21:42:47.286Z,18.55
2023-05-11T21:45:14.348Z,18.88
2023-05-11T21:47:42.645Z,18.55
2023-05-11T21:50:11.634Z,17.52
2023-05-11T21:52:38.596Z,17.90
2023-05-11T21:55:05.986Z,18.20
2023-05-11T21:57:37.325Z,18.83
2023-05-11T22:00:04.961Z,18.98
2023-05-11T22:02:32.751Z,17.77
2023-05-11T22:05:00.037Z,18.52
2023-05-11T22:07:27.030Z,19.13
2023-05-11T22:09:54.175Z,18.15
2023-05-11T22:12:21.602Z,18.70
2023-05-11T22:14:48.638Z,17.83
2023-05-11T22:17:15.896Z,16.60
2023-05-11T22:19:42.973Z,17.42
2023-05-11T22:22:09.920Z,17.67
2023-05-11T22:24:37.145Z,17.42
2023-05-11T22:27:04.148Z,17.45
2023-05-11T22:29:31.165Z,17.05
2023-05-11T22:31:58.476Z,16.77
2023-05-11T22:34:25.666Z,17.85
2023-05-11T22:36:52.560Z,17.98
2023-05-11T22:39:19.497Z,16.33
2023-05-11T22:41:46.490Z,17.33
2023-05-11T22:44:13.486Z,15.75
2023-05-11T22:46:40.492Z,16.58
2023-05-11T22:49:08.484Z,17.35
2023-05-11T22:51:36.434Z,16.67
2023-05-11T22:54:03.655Z,17.52
2023-05-11T22:56:32.883Z,16.17
2023-05-11T22:59:00.231Z,17.70
2023-05-11T23:01:29.335Z,17.75
2023-05-11T23:03:56.315Z,17.77
2023-05-11T23:06:23.913Z,17.15
2023-05-11T23:08:51.134Z,16.50
2023-05-11T23:11:19.235Z,18.33
2023-05-11T23:13:47.015Z,17.92
2023-05-11T23:16:14.102Z,16.98
2023-05-11T23:18:41.278Z,17.50
2023-05-11T23:21:08.528Z,17.13
2023-05-11T23:23:35.667Z,17.85
2023-05-11T23:26:02.563Z,19.02
2023-05-11T23:28:31.365Z,18.88
2023-05-11T23:30:58.313Z,19.08
2023-05-11T23:33:25.446Z,18.58
2023-05-11T23:35:55.883Z,19.55
2023-05-11T23:38:23.676Z,19.27
2023-05-11T23:40:50.623Z,21.85
2023-05-11T23:43:19.769Z,20.15
2023-05-11T23:45:47.263Z,22.08
2023-05-11T23:48:14.380Z,21.77
2023-05-11T23:50:41.417Z,19.75
2023-05-11T23:53:08.594Z,20.17
2023-05-11T23:55:35.688Z,21.92
2023-05-11T23:58:02.574Z,22.65
